Latest Weather Observations for Port Lincoln Airport

IDS60801

Issued at 7:31 pm CST Saturday 5 September 2015 (issued every 30 minutes, with the page automatically refreshed every 10 minutes)

About weather observations | Map of weather stations | Latest weather observations for SA | Other Formats
Station Details ID: 018192 Name: PORT LINCOLN AWS Lat: -34.60 Lon: 135.88 Height: 8.5 m
Data from the previous 72 hours. | See also: Recent months at Port Lincoln Airport
Date/Time
CST
Temp
°C
App
Temp
°C
Dew
Point
Rel
Hum
%
Delta-T
°C
Wind Press
QNH
hPa
Press
MSL
hPa
Rain
since 9 am
mm
Dir
 
Spd
km/h
Gust
km/h
Spd
kts
Gust
kts
05/07:30pm 12.6 11.0 10.3 86 1.2 NNE 9 11 5 6 1018.9 1018.9 0.0
05/07:00pm 13.1 11.7 10.8 86 1.2 NE 9 13 5 7 1018.9 1018.9 0.0
05/06:30pm 13.3 11.7 11.4 88 1.0 NE 11 15 6 8 1018.6 1018.6 0.0
05/06:00pm 13.7 11.2 11.2 85 1.3 NE 15 19 8 10 1018.4 1018.4 0.0
05/05:30pm 14.3 11.8 11.1 81 1.7 NE 15 20 8 11 1018.3 1018.3 0.0
05/05:00pm 14.6 11.9 11.7 83 1.6 NE 17 22 9 12 1018.2 1018.2 0.0
05/04:30pm 14.7 11.6 11.7 82 1.6 ENE 19 24 10 13 1018.1 1018.1 0.0
05/04:00pm 15.3 12.2 11.5 78 2.0 NE 19 24 10 13 1018.2 1018.2 0.0
05/03:30pm 15.3 11.9 11.3 77 2.1 ENE 20 26 11 14 1018.2 1018.2 0.0
05/03:00pm 16.5 13.0 12.1 75 2.4 ENE 22 28 12 15 1018.2 1018.2 0.0
05/02:30pm 18.8 16.4 10.1 57 4.6 N 13 20 7 11 1018.7 1018.7 0.0
05/02:00pm 18.6 14.3 7.7 49 5.5 N 20 26 11 14 1019.0 1019.0 0.0
05/01:30pm 17.8 14.4 9.2 57 4.5 N 17 24 9 13 1019.4 1019.4 0.0
05/01:00pm 18.4 14.0 7.5 49 5.5 N 20 26 11 14 1020.0 1020.0 0.0
05/12:30pm 18.4 13.9 8.7 53 5.0 N 22 28 12 15 1020.5 1020.5 0.0
05/12:00pm 18.1 15.3 10.0 59 4.3 NNW 15 22 8 12 1020.9 1020.9 0.0
05/11:30am 15.4 11.9 10.8 74 2.4 ENE 20 24 11 13 1021.6 1021.6 0.0
05/11:00am 15.1 12.2 10.9 76 2.2 ENE 17 20 9 11 1022.1 1022.1 0.0
05/10:30am 14.2 11.3 9.8 75 2.3 NE 15 19 8 10 1022.3 1022.3 0.0
05/10:00am 13.4 10.4 9.3 76 2.1 NNE 15 19 8 10 1022.8 1022.8 0.0
05/09:56am 13.3 10.3 9.2 76 2.1 NNE 15 19 8 10 1022.8 1022.8 0.0
05/09:38am 12.6 9.6 9.1 79 1.8 NNE 15 19 8 10 1023.0 1023.0 0.0
05/09:30am 12.2 9.1 9.0 81 1.6 NNE 15 19 8 10 1023.1 1023.1 0.0
05/09:00am 11.1 7.5 8.5 84 1.3 NNE 17 24 9 13 1023.5 1023.5 0.0
05/08:30am 9.4 5.7 7.8 90 0.8 NNE 17 22 9 12 1023.7 1023.7 0.0
05/08:00am 8.8 5.8 7.6 92 0.6 NNE 13 19 7 10 1023.4 1023.4 0.0
05/07:30am 7.8 6.3 6.7 93 0.5 N 4 9 2 5 1023.7 1023.7 0.0
05/07:00am 7.4 5.4 6.2 92 0.5 N 6 11 3 6 1023.7 1023.7 0.0
05/06:30am 7.1 5.0 5.9 92 0.5 N 6 9 3 5 1023.9 1023.9 0.0
05/06:00am 7.6 5.6 6.4 92 0.5 N 6 9 3 5 1023.7 1023.7 0.0
05/05:30am 6.9 4.7 6.0 94 0.4 N 7 9 4 5 1023.4 1023.4 0.0
05/05:00am 6.4 4.0 5.4 93 0.4 NNW 7 11 4 6 1023.4 1023.4 0.0
05/04:30am 6.4 3.7 5.7 95 0.3 NNW 9 13 5 7 1023.3 1023.3 0.0
05/04:00am 6.3 3.1 5.3 93 0.4 N 11 11 6 6 1023.1 1023.1 0.0
05/03:30am 6.1 3.7 5.4 95 0.3 N 7 9 4 5 1023.0 1023.0 0.0
05/03:00am 5.3 2.9 4.3 93 0.4 NNW 6 7 3 4 1023.2 1023.2 0.0
05/02:30am 5.3 4.0 4.3 93 0.4 CALM 0 6 0 3 1023.7 1023.7 0.0
05/02:00am 5.8 4.3 4.8 93 0.4 N 2 9 1 5 1024.3 1024.3 0.0
05/01:30am 4.1 1.3 3.1 93 0.4 N 7 9 4 5 1024.4 1024.4 0.0
05/01:00am 4.4 1.9 3.8 96 0.2 NNW 6 7 3 4 1024.5 1024.5 0.0
05/12:30am 4.6 2.0 4.0 96 0.2 NNW 7 9 4 5 1024.6 1024.6 0.0
05/12:00am 4.6 1.6 3.9 95 0.3 NW 9 9 5 5 1025.3 1025.3 0.0
 
Date/Time
CST
Temp
°C
App
Temp
°C
Dew
Point
Rel
Hum
%
Delta-T
°C
Wind Press
QNH
hPa
Press
MSL
hPa
Rain
since 9 am
mm
Dir
 
Spd
km/h
Gust
km/h
Spd
kts
Gust
kts
04/11:30pm 4.7 2.1 4.0 95 0.3 NNW 7 9 4 5 1025.6 1025.6 0.0
04/11:00pm 4.5 1.8 3.8 95 0.3 NW 7 9 4 5 1026.0 1026.0 0.0
04/10:30pm 4.8 2.2 4.1 95 0.3 NW 7 9 4 5 1026.0 1026.0 0.0
04/10:00pm 4.8 2.1 3.9 94 0.4 NW 7 9 4 5 1026.1 1026.1 0.0
04/09:30pm 5.3 2.7 4.4 94 0.4 NW 7 9 4 5 1026.3 1026.3 0.0
04/09:00pm 5.5 3.2 4.6 94 0.4 NW 6 11 3 6 1026.5 1026.5 0.0
04/08:30pm 5.7 4.5 4.5 92 0.5 CALM 0 0 0 0 1026.5 1026.5 0.0
04/08:00pm 6.5 4.7 3.7 82 1.2 E 2 7 1 4 1026.3 1026.3 0.0
04/07:30pm 8.9 6.2 5.5 79 1.5 ESE 9 11 5 6 1026.0 1026.0 0.0
04/07:00pm 10.2 7.9 5.8 74 2.0 ESE 7 9 4 5 1026.0 1026.0 0.0
04/06:30pm 10.9 8.3 6.3 73 2.1 NE 9 13 5 7 1026.1 1026.1 0.0
04/06:00pm 11.4 8.5 6.3 71 2.4 ENE 11 17 6 9 1025.9 1025.9 0.0
04/05:30pm 11.9 8.7 7.0 72 2.3 ENE 13 17 7 9 1025.7 1025.7 0.0
04/05:00pm 12.2 9.0 6.9 70 2.5 ENE 13 19 7 10 1025.5 1025.5 0.0
04/04:30pm 12.5 8.9 6.8 68 2.7 E 15 17 8 9 1025.6 1025.6 0.0
04/04:00pm 12.7 9.5 7.0 68 2.7 E 13 17 7 9 1025.8 1025.8 0.0
04/03:30pm 12.8 9.5 6.6 66 2.9 ENE 13 17 7 9 1026.0 1026.0 0.0
04/03:00pm 13.0 9.8 6.8 66 3.0 E 13 17 7 9 1026.1 1026.1 0.0
04/02:30pm 13.1 10.2 6.5 64 3.1 ENE 11 17 6 9 1026.2 1026.2 0.0
04/02:00pm 12.9 9.5 6.0 63 3.3 ENE 13 17 7 9 1026.5 1026.5 0.0
04/01:30pm 13.2 10.2 7.6 69 2.7 ENE 13 17 7 9 1026.8 1026.8 0.0
04/01:00pm 12.9 9.5 6.0 63 3.3 NE 13 17 7 9 1027.2 1027.2 0.0
04/12:30pm 13.0 9.8 6.8 66 3.0 ENE 13 17 7 9 1027.5 1027.5 0.0
04/12:00pm 12.9 9.2 6.5 65 3.0 ENE 15 19 8 10 1027.8 1027.8 0.0
04/11:30am 13.0 9.9 5.4 60 3.5 E 11 15 6 8 1028.1 1028.1 0.0
04/11:00am 13.0 9.6 5.9 62 3.3 E 13 19 7 10 1028.2 1028.2 0.0
04/10:30am 12.8 9.8 5.9 63 3.2 E 11 20 6 11 1028.1 1028.1 0.0
04/10:00am 12.6 8.9 6.4 66 2.9 ENE 15 19 8 10 1028.1 1028.1 0.0
04/09:30am 12.5 8.6 7.2 70 2.5 E 17 20 9 11 1028.3 1028.3 0.0
04/09:00am 12.3 10.3 7.0 70 2.5 ESE 7 11 4 6 1028.5 1028.5 0.0
04/08:30am 12.0 9.3 7.5 74 2.2 SSE 11 13 6 7 1028.4 1028.4 0.0
04/08:00am 11.7 9.5 7.8 77 1.9 SE 9 11 5 6 1028.4 1028.4 0.0
04/07:30am 11.3 8.7 7.8 79 1.7 SSE 11 15 6 8 1028.1 1028.1 0.0
04/07:00am 11.0 8.3 7.5 79 1.7 SE 11 13 6 7 1028.1 1028.1 0.0
04/06:30am 11.2 8.0 6.9 75 2.0 SE 13 19 7 10 1027.9 1027.9 0.0
04/06:00am 10.8 8.0 7.1 78 1.7 SSW 11 15 6 8 1027.8 1027.8 0.0
04/05:30am 11.3 8.1 6.8 74 2.1 SSE 13 19 7 10 1027.6 1027.6 0.0
04/05:00am 10.9 8.9 7.0 77 1.9 SW 7 11 4 6 1027.2 1027.2 0.0
04/04:30am 10.4 8.4 7.3 81 1.5 SW 7 9 4 5 1027.0 1027.0 0.0
04/04:00am 10.6 8.5 6.7 77 1.8 SW 7 9 4 5 1026.8 1026.8 0.0
04/03:30am 10.5 8.1 7.2 80 1.6 SSW 9 11 5 6 1026.9 1026.9 0.0
04/03:00am 10.8 8.0 7.1 78 1.7 SSW 11 13 6 7 1027.1 1027.1 0.0
04/02:30am 10.9 8.5 7.0 77 1.8 SSW 9 11 5 6 1027.3 1027.3 0.0
04/02:00am 11.5 8.3 6.8 73 2.2 SSE 13 17 7 9 1027.4 1027.4 0.0
04/01:30am 11.6 8.4 6.9 73 2.2 SSE 13 17 7 9 1027.5 1027.5 0.0
04/01:00am 11.6 8.4 6.9 73 2.2 SSE 13 19 7 10 1027.5 1027.5 0.0
04/12:30am 11.6 8.7 6.7 72 2.3 S 11 17 6 9 1027.7 1027.7 0.0
04/12:00am 11.6 9.1 6.5 71 2.4 SSE 9 15 5 8 1027.9 1027.9 0.0
 
Date/Time
CST
Temp
°C
App
Temp
°C
Dew
Point
Rel
Hum
%
Delta-T
°C
Wind Press
QNH
hPa
Press
MSL
hPa
Rain
since 9 am
mm
Dir
 
Spd
km/h
Gust
km/h
Spd
kts
Gust
kts
03/11:30pm 11.7 8.4 6.6 71 2.4 SE 13 19 7 10 1028.0 1028.0 0.0
03/11:00pm 11.9 7.8 6.4 69 2.6 SSE 17 22 9 12 1028.0 1028.0 0.0
03/10:30pm 11.7 8.4 6.6 71 2.4 SSW 13 24 7 13 1028.1 1028.1 0.0
03/10:00pm 11.3 8.5 7.0 75 2.0 SW 11 13 6 7 1028.2 1028.2 0.0
03/09:30pm 11.5 8.7 6.8 73 2.2 SSW 11 17 6 9 1028.1 1028.1 0.0
03/09:00pm 12.0 7.6 6.5 69 2.6 S 19 24 10 13 1027.9 1027.9 0.0
03/08:30pm 11.9 7.9 6.6 70 2.5 SSE 17 20 9 11 1027.5 1027.5 0.0
03/08:00pm 11.8 7.2 6.5 70 2.5 S 20 28 11 15 1027.3 1027.3 0.0
03/07:30pm 12.1 8.3 7.4 73 2.3 S 17 22 9 12 1026.9 1026.9 0.0
03/07:00pm 12.2 8.7 7.3 72 2.4 S 15 28 8 15 1026.8 1026.8 0.0
03/06:30pm 12.3 7.4 6.8 69 2.6 S 22 26 12 14 1026.5 1026.5 0.0
03/06:00pm 12.4 8.8 8.5 77 1.9 S 17 20 9 11 1026.3 1026.3 0.0
03/05:30pm 12.5 8.2 8.0 74 2.2 S 20 28 11 15 1026.0 1026.0 0.0
03/05:00pm 12.4 6.7 8.5 77 1.9 S 28 33 15 18 1025.7 1025.7 0.0
03/04:30pm 13.3 7.9 8.2 71 2.5 S 26 32 14 17 1025.3 1025.3 0.0
03/04:00pm 14.4 10.0 9.0 70 2.7 S 22 28 12 15 1024.9 1024.9 0.0
03/03:30pm 13.8 8.2 8.8 72 2.5 S 28 35 15 19 1024.6 1024.6 0.0
03/03:00pm 14.0 8.9 9.2 73 2.4 S 26 32 14 17 1024.4 1024.4 0.0
03/02:30pm 14.1 9.6 8.5 69 2.8 S 22 28 12 15 1024.3 1024.3 0.0
03/02:00pm 14.0 9.6 9.0 72 2.5 S 22 32 12 17 1024.3 1024.3 0.0
03/01:30pm 13.8 9.3 10.0 78 2.0 S 24 32 13 17 1024.5 1024.5 0.0
03/01:00pm 13.9 9.0 9.9 77 2.1 SSW 26 32 14 17 1024.6 1024.6 0.0
03/12:30pm 12.5 6.5 10.7 89 0.9 S 33 41 18 22 1024.7 1024.7 0.0
03/12:00pm 13.6 8.0 10.0 79 1.8 S 30 35 16 19 1024.6 1024.6 0.0
03/11:30am 14.1 9.4 10.5 79 1.9 S 26 33 14 18 1024.6 1024.6 0.0
03/11:00am 12.9 8.2 10.8 87 1.1 SSE 26 37 14 20 1024.7 1024.7 0.0
03/10:30am 12.7 7.3 10.8 88 1.0 S 30 43 16 23 1024.4 1024.4 0.0
03/10:07am 12.3 8.0 10.7 90 0.8 S 24 32 13 17 1024.4 1024.4 0.0
03/10:00am 12.6 7.7 11.2 91 0.7 S 28 37 15 20 1024.4 1024.4 0.0
03/09:55am 12.4 6.7 11.1 92 0.7 S 32 39 17 21 1024.2 1024.2 0.0
03/09:30am 13.0 8.4 11.2 89 0.9 S 26 33 14 18 1024.1 1024.1 0.0
03/09:00am 12.2 8.0 11.1 93 0.6 S 24 32 13 17 1023.5 1023.5 9.0
03/08:30am 12.0 8.2 11.1 94 0.5 S 22 28 12 15 1022.9 1022.9 9.0
03/08:03am 11.7 6.7 10.9 95 0.4 S 28 43 15 23 1022.2 1022.2 9.0
03/08:00am 11.8 6.5 11.2 96 0.3 S 30 43 16 23 1022.1 1022.1 9.0
03/07:45am 11.8 8.2 10.7 93 0.6 S 20 39 11 21 1021.9 1021.9 9.0
03/07:30am 12.1 8.4 10.3 89 0.9 SSW 20 26 11 14 1021.6 1021.6 8.8
03/07:00am 12.3 8.6 10.2 87 1.1 SSW 20 26 11 14 1021.0 1021.0 8.8
03/06:30am 12.3 7.4 9.9 85 1.2 SSW 26 35 14 19 1020.5 1020.5 8.8
03/06:00am 11.9 7.4 10.1 89 0.9 SSW 24 33 13 18 1019.8 1019.8 8.8
03/05:47am 12.0 6.1 10.6 91 0.7 S 32 41 17 22 1019.5 1019.5 8.8
03/05:31am 12.3 5.4 10.2 87 1.1 S 37 48 20 26 1019.0 1019.0 8.8
03/05:30am 12.5 5.6 10.4 87 1.1 S 37 48 20 26 1018.9 1018.9 8.8
03/05:00am 12.6 7.4 10.3 86 1.2 SSW 28 41 15 22 1018.6 1018.6 8.8
03/04:30am 12.6 7.1 10.7 88 1.0 SSW 30 39 16 21 1018.2 1018.2 8.8
03/04:00am 12.5 7.4 10.6 88 1.0 SSW 28 39 15 21 1017.6 1017.6 8.8
03/03:30am 12.6 7.5 10.7 88 1.0 SSW 28 39 15 21 1017.3 1017.3 8.8
03/03:00am 12.4 7.0 11.0 91 0.7 SSW 30 44 16 24 1017.0 1017.0 8.8
03/02:30am 12.4 5.7 11.0 91 0.7 SSW 37 48 20 26 1016.6 1016.6 8.8
03/02:11am 12.5 6.2 11.2 92 0.7 SSW 35 52 19 28 1016.5 1016.5 8.8
03/02:00am 12.6 6.9 11.2 91 0.7 SSW 32 44 17 24 1016.5 1016.5 8.8
03/01:49am 12.8 6.9 11.2 90 0.8 SSW 33 43 18 23 1016.2 1016.2 8.8
03/01:31am 12.6 7.0 11.5 93 0.6 SSW 32 44 17 24 1015.8 1015.8 8.8
03/01:30am 12.5 6.9 11.4 93 0.6 SSW 32 44 17 24 1015.7 1015.7 8.8
03/01:14am 12.6 7.1 11.8 95 0.4 SSW 32 44 17 24 1015.7 1015.7 8.8
03/01:07am 12.7 8.6 11.6 93 0.6 SSW 24 33 13 18 1015.7 1015.7 8.4
03/01:00am 12.9 9.1 11.1 89 0.9 SSW 22 28 12 15 1015.6 1015.6 8.2
03/12:30am 12.9 8.6 10.8 87 1.1 SSW 24 30 13 16 1015.4 1015.4 8.2
03/12:00am 12.8 9.2 10.5 86 1.2 SSW 20 30 11 16 1014.9 1014.9 8.2
 
Date/Time
CST
Temp
°C
App
Temp
°C
Dew
Point
Rel
Hum
%
Delta-T
°C
Wind Press
QNH
hPa
Press
MSL
hPa
Rain
since 9 am
mm
Dir
 
Spd
km/h
Gust
km/h
Spd
kts
Gust
kts
02/11:30pm 11.8 9.1 10.4 91 0.7 SSW 15 19 8 10 1014.4 1014.4 8.2
02/11:00pm 11.4 7.2 9.8 90 0.8 SSW 22 26 12 14 1013.9 1013.9 8.2
02/10:30pm 11.3 7.4 9.6 89 0.9 SSW 20 26 11 14 1013.2 1013.2 8.2
02/10:00pm 11.7 7.9 9.8 88 1.0 SW 20 26 11 14 1013.3 1013.3 8.2
02/09:30pm 12.0 8.1 10.7 92 0.7 SW 22 30 12 16 1013.0 1013.0 8.2
02/09:00pm 12.0 8.9 10.4 90 0.8 SW 17 24 9 13 1012.4 1012.4 8.2
02/08:30pm 12.4 8.5 9.4 82 1.5 SSW 20 28 11 15 1011.3 1011.3 8.0
02/08:00pm 12.6 7.1 9.2 80 1.7 SSW 28 37 15 20 1010.5 1010.5 8.0

Other Formats:

Comma delimited format used in spreadsheet applications
http://www.bom.gov.au/fwo/IDS60801/IDS60801.95661.axf

JavaScript Object Notation format (JSON) in row-major order
http://www.bom.gov.au/fwo/IDS60801/IDS60801.95661.json